Archiv-/Tagesdaten

--Timestamp---	Temp	Chill	HIndex	Humid	Dewpt	 Wind 	HiWind	WindDir	Rain 	Barom	Solar	 ET  	 UV 
--------------	----	-----	------	-----	-----	------	------	-------	-----	-----	-----	-----	----
20100715 00:00	24.4	24.4	25.5	63	16.9	5	11	45	1.2	1006.4	0	0.076	0.0
20100715 00:05	23.5	23.5	23.5	69	17.5	6	16	158	0.2	1006.1	0	0.000	0.0
20100715 00:10	22.9	22.9	22.9	70	17.1	11	19	158	0.4	1006.2	0	0.000	0.0
20100715 00:15	22.7	22.7	22.7	69	16.7	6	16	135	0.4	1006.4	0	0.000	0.0
20100715 00:20	22.7	22.7	22.7	71	17.2	10	21	112	0.0	1006.3	0	0.000	0.0
20100715 00:25	22.4	22.4	22.4	75	17.8	2	5	112	0.2	1006.2	0	0.000	0.0
20100715 00:30	22.1	22.1	22.1	79	18.3	3	8	112	0.0	1006.0	0	0.000	0.0
20100715 00:35	21.8	21.8	21.8	80	18.2	3	10	135	0.0	1006.1	0	0.000	0.0
20100715 00:40	21.6	21.6	21.6	79	17.8	3	10	135	0.2	1006.2	0	0.000	0.0
20100715 00:45	21.5	21.5	21.5	79	17.7	16	31	292	0.0	1007.8	0	0.000	0.0
20100715 00:50	21.4	21.4	21.4	79	17.6	11	27	292	0.0	1007.7	0	0.000	0.0
20100715 00:55	21.5	21.5	21.5	79	17.7	13	19	292	0.0	1008.1	0	0.000	0.0
20100715 01:00	21.7	21.7	21.7	77	17.5	10	19	292	0.0	1008.1	0	0.051	0.0
20100715 01:05	21.9	21.9	21.9	76	17.5	10	18	292	0.0	1008.0	0	0.000	0.0
20100715 01:10	22.0	22.0	22.0	76	17.6	10	16	292	0.0	1008.0	0	0.000	0.0
20100715 01:15	22.1	22.1	22.1	75	17.5	14	29	315	0.0	1008.1	0	0.000	0.0
20100715 01:20	22.3	22.3	22.3	74	17.4	11	34	315	0.0	1008.0	0	0.000	0.0
20100715 01:25	22.2	22.2	22.2	75	17.5	3	21	315	0.0	1007.9	0	0.000	0.0
20100715 01:30	21.9	21.9	21.9	75	17.3	2	6	22	0.0	1008.1	0	0.000	0.0
20100715 01:35	21.7	21.7	21.7	74	16.9	2	8	22	0.0	1008.5	0	0.000	0.0
20100715 01:40	21.6	21.6	21.6	74	16.7	2	10	45	0.0	1008.9	0	0.000	0.0
20100715 01:45	21.4	21.4	21.4	74	16.6	0	5	45	0.0	1009.1	0	0.000	0.0
20100715 01:50	21.3	21.3	21.3	73	16.3	3	10	292	0.0	1009.0	0	0.000	0.0
20100715 01:55	21.3	21.3	21.3	73	16.2	8	16	315	0.0	1009.1	0	0.000	0.0
20100715 02:00	21.3	21.3	21.3	73	16.2	11	18	315	0.0	1009.5	0	0.051	0.0
20100715 02:05	21.3	21.3	21.3	72	16.0	13	26	315	0.0	1009.7	0	0.000	0.0
20100715 02:10	21.3	21.3	21.3	71	15.9	11	27	315	0.0	1009.5	0	0.000	0.0
20100715 02:15	21.3	21.3	21.3	70	15.6	10	19	315	0.0	1009.7	0	0.000	0.0
20100715 02:20	21.3	21.3	21.3	69	15.4	10	19	315	0.0	1009.7	0	0.000	0.0
20100715 02:25	21.4	21.4	21.4	69	15.5	13	24	315	0.0	1010.0	0	0.000	0.0
20100715 02:30	21.4	21.4	21.4	69	15.5	10	21	292	0.0	1010.1	0	0.000	0.0
20100715 02:35	21.3	21.3	21.3	69	15.4	8	18	292	0.0	1010.4	0	0.000	0.0
20100715 02:40	21.3	21.3	21.3	70	15.6	8	18	292	0.0	1010.7	0	0.000	0.0
20100715 02:45	21.2	21.2	21.2	73	16.1	11	19	270	0.4	1011.3	0	0.000	0.0
20100715 02:50	20.7	20.7	20.7	78	16.7	10	18	270	2.0	1011.4	0	0.000	0.0
20100715 02:55	20.1	20.1	20.1	81	16.7	2	6	270	2.8	1011.4	0	0.000	0.0
20100715 03:00	19.5	19.5	19.5	84	16.7	5	8	225	0.6	1011.5	0	0.051	0.0
20100715 03:05	19.2	19.2	19.2	86	16.8	2	6	225	0.2	1011.4	0	0.000	0.0
20100715 03:10	18.8	18.8	18.8	86	16.4	3	6	225	0.0	1011.1	0	0.000	0.0
20100715 03:15	18.7	18.7	18.7	87	16.5	0	2	315	0.0	1011.0	0	0.000	0.0
20100715 03:20	18.6	18.6	18.6	88	16.6	0	0	-100000	0.0	1011.1	0	0.000	0.0
20100715 03:25	18.6	18.6	18.6	89	16.7	0	0	-100000	0.6	1011.3	0	0.000	0.0
20100715 03:30	18.5	18.5	18.5	89	16.6	0	2	315	0.0	1011.2	0	0.000	0.0
20100715 03:35	18.5	18.5	18.5	90	16.8	0	0	-100000	0.0	1011.3	0	0.000	0.0
20100715 03:40	18.6	18.6	18.6	90	16.9	0	2	315	0.0	1011.4	0	0.000	0.0
20100715 03:45	18.6	18.6	18.6	90	16.9	0	2	315	0.0	1011.1	0	0.000	0.0
20100715 03:50	18.5	18.5	18.5	90	16.8	0	2	315	0.0	1011.2	0	0.000	0.0
20100715 03:55	18.5	18.5	18.5	90	16.8	0	2	315	0.0	1011.1	0	0.000	0.0
20100715 04:00	18.5	18.5	18.5	91	17.0	0	3	315	0.0	1011.2	0	0.000	0.0
20100715 04:05	18.5	18.5	18.5	91	17.0	2	5	315	0.0	1011.2	0	0.000	0.0
20100715 04:10	18.4	18.4	18.4	91	16.9	2	3	315	0.0	1011.2	0	0.000	0.0
20100715 04:15	18.4	18.4	18.4	91	16.9	0	3	315	0.0	1011.3	0	0.000	0.0
20100715 04:20	18.4	18.4	18.4	91	16.9	2	5	315	0.0	1011.2	0	0.000	0.0
20100715 04:25	18.4	18.4	18.4	91	16.9	5	8	270	0.0	1011.3	0	0.000	0.0
20100715 04:30	18.4	18.4	18.4	91	16.9	5	8	270	0.0	1011.3	0	0.000	0.0
20100715 04:35	18.3	18.3	18.3	91	16.8	3	8	248	0.0	1011.2	0	0.000	0.0
20100715 04:40	18.3	18.3	18.3	91	16.8	2	5	248	0.0	1011.3	0	0.000	0.0
20100715 04:45	18.2	18.2	18.2	91	16.7	0	2	248	0.0	1011.2	0	0.000	0.0
20100715 04:50	18.2	18.2	18.2	91	16.7	0	2	248	0.0	1011.1	0	0.000	0.0
20100715 04:55	18.3	18.3	18.3	92	17.0	0	2	248	0.0	1011.2	0	0.000	0.0
20100715 05:00	18.3	18.3	18.3	92	17.0	0	2	248	0.0	1011.3	0	0.000	0.0
20100715 05:05	18.4	18.4	18.4	92	17.1	0	3	248	0.0	1011.3	0	0.000	0.0
20100715 05:10	18.5	18.5	18.5	92	17.2	2	5	248	0.0	1011.4	0	0.000	0.0
20100715 05:15	18.5	18.5	18.5	92	17.2	0	3	248	0.0	1011.6	0	0.000	0.0
20100715 05:20	18.5	18.5	18.5	92	17.2	0	0	-100000	0.0	1011.6	0	0.000	0.0
20100715 05:25	18.5	18.5	18.5	92	17.2	0	5	248	0.0	1011.6	0	0.000	0.0
20100715 05:30	18.6	18.6	18.6	92	17.2	0	3	248	0.0	1011.7	0	0.000	0.0
20100715 05:35	18.6	18.6	18.6	92	17.3	0	2	248	0.0	1011.6	0	0.000	0.0
20100715 05:40	18.7	18.7	18.7	92	17.3	2	6	248	0.0	1011.7	0	0.000	0.0
20100715 05:45	18.7	18.7	18.7	92	17.4	0	6	248	0.0	1011.7	0	0.000	0.0
20100715 05:50	18.7	18.7	18.7	92	17.4	0	2	248	0.0	1011.7	0	0.000	0.0
20100715 05:55	18.7	18.7	18.7	92	17.4	0	3	248	0.0	1011.7	0	0.000	0.0
20100715 06:00	18.7	18.7	18.7	92	17.4	0	3	248	0.0	1011.6	0	0.000	0.0
20100715 06:05	18.7	18.7	18.7	92	17.4	0	0	-100000	0.0	1011.8	3	0.000	0.0
20100715 06:10	18.7	18.7	18.7	92	17.3	0	2	248	0.0	1011.8	10	0.000	0.0
20100715 06:15	18.7	18.7	18.7	92	17.3	2	6	248	0.0	1011.8	15	0.000	0.0
20100715 06:20	18.7	18.7	18.7	92	17.3	0	5	248	0.0	1011.9	17	0.000	0.0
20100715 06:25	18.7	18.7	18.7	92	17.3	3	6	248	0.0	1012.0	23	0.000	0.0
20100715 06:30	18.7	18.7	18.7	92	17.3	3	6	248	0.0	1012.1	33	0.000	0.0
20100715 06:35	18.7	18.7	18.7	92	17.3	3	6	292	0.0	1012.3	47	0.000	0.0
20100715 06:40	18.7	18.7	18.7	92	17.4	5	8	270	0.0	1012.3	50	0.000	0.0
20100715 06:45	18.7	18.7	18.7	92	17.4	3	6	270	0.0	1012.3	53	0.000	0.0
20100715 06:50	18.8	18.8	18.8	92	17.5	5	8	270	0.0	1012.3	58	0.000	0.0
20100715 06:55	18.9	18.9	18.9	92	17.6	5	8	270	0.0	1012.5	66	0.000	0.0
20100715 07:00	18.9	18.9	18.9	92	17.6	3	6	270	0.0	1012.5	75	0.000	0.0
20100715 07:05	19.0	19.0	19.0	92	17.7	3	10	270	0.0	1012.8	48	0.025	0.0
20100715 07:10	19.0	19.0	19.0	92	17.7	6	10	292	0.0	1012.9	51	0.000	0.0
20100715 07:15	19.1	19.1	19.1	91	17.5	3	8	315	0.0	1012.9	62	0.000	0.0
20100715 07:20	19.1	19.1	19.1	91	17.5	3	8	292	0.0	1013.0	76	0.000	0.0
20100715 07:25	19.1	19.1	19.1	91	17.5	2	6	315	0.0	1013.0	81	0.000	0.0
20100715 07:30	19.2	19.2	19.2	91	17.7	0	2	315	0.0	1013.1	91	0.000	0.0
20100715 07:35	19.2	19.2	19.2	91	17.7	3	6	315	0.0	1013.1	104	0.000	0.0
20100715 07:40	19.3	19.3	19.3	91	17.8	2	6	315	0.0	1013.0	89	0.000	0.3
20100715 07:45	19.3	19.3	19.3	90	17.6	3	8	315	0.0	1013.0	97	0.000	0.5
20100715 07:50	19.4	19.4	19.4	90	17.7	3	6	315	0.0	1013.1	119	0.000	0.6
20100715 07:55	19.4	19.4	19.4	90	17.8	2	8	315	0.0	1013.2	122	0.000	0.5
20100715 08:00	19.5	19.5	19.5	89	17.6	3	6	315	0.0	1013.4	109	0.051	0.6
20100715 08:05	19.6	19.6	19.6	88	17.5	5	8	292	0.0	1013.8	116	0.000	0.7
20100715 08:10	19.6	19.6	19.6	88	17.6	5	10	292	0.0	1013.9	103	0.000	0.7
20100715 08:15	19.7	19.7	19.7	88	17.6	3	8	292	0.0	1013.9	143	0.000	0.8
20100715 08:20	19.8	19.8	19.8	87	17.5	2	6	292	0.0	1013.7	166	0.000	0.9
20100715 08:25	19.9	19.9	19.9	88	17.9	0	2	292	0.0	1013.8	177	0.000	0.9
20100715 08:30	20.1	20.1	20.1	87	17.8	2	5	292	0.0	1013.8	189	0.000	1.0
20100715 08:35	20.2	20.2	20.2	84	17.4	2	6	292	0.0	1013.9	208	0.000	1.0
20100715 08:40	20.3	20.3	20.3	85	17.7	0	6	292	0.0	1013.9	207	0.000	1.1
20100715 08:45	20.4	20.4	20.4	84	17.6	0	3	292	0.0	1013.9	210	0.000	1.1
20100715 08:50	20.6	20.6	20.6	83	17.6	0	2	315	0.0	1013.9	219	0.000	1.2
20100715 08:55	20.7	20.7	20.7	84	17.9	0	5	315	0.0	1013.9	216	0.000	1.2
20100715 09:00	20.7	20.7	20.7	83	17.7	2	8	0	0.0	1013.8	242	0.102	1.6
20100715 09:05	20.7	20.7	20.7	81	17.3	2	6	315	0.0	1014.1	227	0.000	1.6
20100715 09:10	20.8	20.8	20.8	82	17.6	0	5	22	0.0	1014.1	197	0.000	1.4
20100715 09:15	20.8	20.8	20.8	82	17.6	2	5	22	0.0	1013.9	261	0.000	1.6
20100715 09:20	20.9	20.9	20.9	82	17.7	2	6	292	0.0	1014.0	370	0.000	1.9
20100715 09:25	21.0	21.0	21.0	82	17.8	2	6	338	0.0	1014.0	257	0.000	1.7
20100715 09:30	20.9	20.9	20.9	82	17.7	2	6	0	0.0	1014.0	193	0.000	1.8
20100715 09:35	20.8	20.8	20.8	81	17.4	2	8	338	0.0	1014.1	205	0.000	1.9
20100715 09:40	20.9	20.9	20.9	83	17.9	2	10	315	0.0	1014.2	224	0.000	1.8
20100715 09:45	21.0	21.0	21.0	82	17.8	2	6	315	0.0	1014.3	255	0.000	1.7
20100715 09:50	21.1	21.1	21.1	81	17.7	2	8	315	0.0	1014.4	289	0.000	2.1
20100715 09:55	21.1	21.1	21.1	80	17.5	3	8	315	0.0	1014.4	264	0.000	2.3
20100715 10:00	21.2	21.2	21.2	81	17.8	2	6	292	0.0	1014.4	230	0.152	1.8
20100715 10:05	21.2	21.2	21.2	80	17.6	2	6	0	0.0	1014.5	247	0.000	2.1
20100715 10:10	21.1	21.1	21.1	80	17.5	3	8	22	0.0	1014.5	232	0.000	2.6
20100715 10:15	21.1	21.1	21.1	81	17.7	0	5	22	0.0	1014.5	255	0.000	2.7
20100715 10:20	21.1	21.1	21.1	79	17.3	5	10	22	0.0	1014.6	207	0.000	2.1
20100715 10:25	21.1	21.1	21.1	81	17.7	2	5	45	0.2	1014.5	250	0.000	2.5
20100715 10:30	21.3	21.3	21.3	81	17.9	0	3	180	0.0	1014.5	328	0.000	2.9
20100715 10:35	21.5	21.5	21.5	79	17.7	2	6	22	0.0	1014.5	237	0.000	2.2
20100715 10:40	21.5	21.5	21.5	78	17.5	2	8	22	0.0	1014.6	296	0.000	2.7
20100715 10:45	21.5	21.5	21.5	78	17.5	2	6	22	0.0	1014.5	287	0.000	2.7
20100715 10:50	21.6	21.6	21.6	78	17.5	3	8	22	0.0	1014.6	297	0.000	2.8
20100715 10:55	21.7	21.7	21.7	77	17.5	2	10	22	0.0	1014.5	345	0.000	3.2
20100715 11:00	21.7	21.7	21.7	77	17.5	5	8	22	0.0	1014.5	327	0.178	3.0
20100715 11:05	21.8	21.8	21.8	75	17.2	5	11	22	0.0	1014.5	335	0.000	3.2
20100715 11:10	21.9	21.9	21.9	78	17.9	3	8	22	0.0	1014.3	362	0.000	3.2
20100715 11:15	22.2	22.2	22.2	77	17.9	2	5	338	0.0	1014.3	284	0.000	2.7
20100715 11:20	22.3	22.3	22.3	75	17.6	3	10	22	0.0	1014.3	302	0.000	3.1
20100715 11:25	22.3	22.3	22.3	76	17.9	0	5	22	0.0	1014.4	221	0.000	2.6
20100715 11:30	22.3	22.3	22.3	75	17.6	2	8	22	0.0	1014.4	256	0.000	2.9
20100715 11:35	22.3	22.3	22.3	75	17.6	3	8	22	0.0	1014.4	419	0.000	4.6
20100715 11:40	22.6	22.6	22.6	73	17.5	3	14	22	0.0	1014.4	509	0.000	5.4
20100715 11:45	22.8	22.8	22.8	74	17.9	3	11	45	0.0	1014.3	536	0.000	5.4
20100715 11:50	22.9	22.9	22.9	71	17.4	5	10	22	0.0	1014.4	533	0.000	5.5
20100715 11:55	23.2	23.2	23.2	72	17.8	3	11	22	0.0	1014.2	763	0.000	6.8
20100715 12:00	23.6	23.6	23.6	70	17.8	2	8	338	0.0	1014.3	847	0.279	6.8
20100715 12:05	23.8	23.8	23.8	69	17.7	3	10	292	0.0	1014.5	513	0.000	6.3
20100715 12:10	23.9	23.9	24.9	68	17.6	5	16	0	0.0	1014.5	668	0.000	6.4
20100715 12:15	23.7	23.7	23.7	69	17.7	6	11	45	0.0	1014.6	373	0.000	6.3
20100715 12:20	23.9	23.9	24.9	69	17.9	2	6	22	0.0	1014.5	741	0.000	7.1
20100715 12:25	24.1	24.1	25.1	66	17.3	2	6	292	0.0	1014.5	462	0.000	5.2
20100715 12:30	24.0	24.0	25.0	68	17.7	3	8	45	0.0	1014.4	316	0.000	5.0
20100715 12:35	24.2	24.2	25.2	67	17.6	2	8	22	0.0	1014.4	322	0.000	3.3
20100715 12:40	24.3	24.3	25.2	69	18.2	2	5	22	0.0	1014.4	377	0.000	4.1
20100715 12:45	24.2	24.2	25.2	68	17.9	5	11	315	0.0	1014.5	377	0.000	4.1
20100715 12:50	24.1	24.1	25.0	69	18.0	5	14	0	0.0	1014.4	311	0.000	3.3
20100715 12:55	23.9	23.9	24.9	69	17.8	3	14	292	0.0	1014.4	276	0.000	3.1
20100715 13:00	23.8	23.8	23.8	69	17.7	3	11	315	0.0	1014.4	327	0.305	4.0
20100715 13:05	23.7	23.7	23.7	70	17.9	3	10	315	0.0	1014.4	464	0.000	5.7
20100715 13:10	23.9	23.9	24.8	71	18.3	2	10	22	0.0	1014.3	375	0.000	4.7
20100715 13:15	23.8	23.8	23.8	70	18.0	5	16	315	0.0	1014.4	385	0.000	4.7
20100715 13:20	23.9	23.9	24.8	71	18.4	2	6	22	0.0	1014.2	453	0.000	6.7
20100715 13:25	24.3	24.3	25.3	69	18.3	3	11	338	0.0	1014.2	784	0.000	7.7
20100715 13:30	24.8	24.8	25.7	70	18.9	5	14	22	0.0	1014.1	1029	0.000	8.4
20100715 13:35	24.8	24.8	25.8	67	18.3	3	10	22	0.0	1014.0	415	0.000	5.5
20100715 13:40	24.7	24.7	25.7	67	18.2	5	11	315	0.0	1014.1	468	0.000	5.8
20100715 13:45	24.7	24.7	25.6	69	18.6	3	11	315	0.0	1014.1	336	0.000	5.1
20100715 13:50	24.4	24.4	25.4	67	17.9	3	11	22	0.0	1014.1	342	0.000	4.9
20100715 13:55	24.3	24.3	25.3	68	18.0	3	11	0	0.0	1014.1	498	0.000	6.7
20100715 14:00	24.6	24.6	25.5	68	18.2	3	14	292	0.0	1014.0	675	0.381	7.5
20100715 14:05	24.9	24.9	25.9	69	18.9	3	14	22	0.0	1014.2	684	0.000	6.4
20100715 14:10	24.9	24.9	25.9	66	18.1	6	14	22	0.0	1014.2	349	0.000	5.0
20100715 14:15	24.6	24.6	25.5	68	18.2	8	18	22	0.0	1014.2	364	0.000	5.7
20100715 14:20	24.5	24.5	25.4	69	18.4	10	18	22	0.0	1014.3	738	0.000	7.0
20100715 14:25	24.8	24.8	25.8	67	18.3	6	18	22	0.0	1014.2	494	0.000	5.4
20100715 14:30	24.8	24.8	25.8	67	18.3	5	13	22	0.0	1014.1	381	0.000	4.9
20100715 14:35	24.8	24.8	25.8	67	18.3	2	6	22	0.0	1014.2	343	0.000	3.8
20100715 14:40	24.7	24.7	25.7	66	17.9	5	13	22	0.0	1014.2	246	0.000	2.6
20100715 14:45	24.5	24.5	25.5	68	18.2	2	13	22	0.0	1014.2	245	0.000	2.7
20100715 14:50	24.3	24.3	25.3	67	17.8	5	11	22	0.0	1014.3	243	0.000	2.7
20100715 14:55	24.3	24.3	25.2	69	18.2	3	10	22	0.0	1014.3	241	0.000	2.7
20100715 15:00	24.2	24.2	25.2	68	17.9	5	11	22	0.0	1014.2	254	0.279	3.2
20100715 15:05	24.2	24.2	25.2	68	17.9	5	11	22	0.0	1014.3	290	0.000	3.7
20100715 15:10	24.2	24.2	25.2	68	17.9	3	11	45	0.0	1014.2	336	0.000	3.9
20100715 15:15	24.4	24.4	25.3	69	18.3	2	5	0	0.0	1014.2	362	0.000	4.0
20100715 15:20	24.7	24.7	25.7	67	18.1	2	10	0	0.0	1014.2	279	0.000	3.3
20100715 15:25	24.7	24.7	25.7	66	17.9	2	6	0	0.0	1014.1	166	0.000	2.2
20100715 15:30	24.6	24.6	25.6	67	18.1	2	8	0	0.0	1014.3	209	0.000	2.5
20100715 15:35	24.7	24.7	25.6	68	18.4	2	6	338	0.0	1014.2	422	0.000	3.7
20100715 15:40	25.1	25.1	26.1	68	18.7	2	8	22	0.0	1014.1	847	0.000	6.3
20100715 15:45	25.6	25.6	26.7	66	18.8	5	14	338	0.0	1014.0	845	0.000	5.6
20100715 15:50	25.9	25.9	26.9	64	18.5	6	19	315	0.0	1014.0	446	0.000	4.2
20100715 15:55	25.8	25.8	26.8	63	18.2	6	14	292	0.0	1014.1	516	0.000	4.3
20100715 16:00	25.7	25.7	26.7	63	18.1	5	11	315	0.0	1014.2	377	0.279	3.4
20100715 16:05	25.6	25.6	26.6	64	18.3	2	5	0	0.0	1014.3	318	0.000	2.8
20100715 16:10	25.6	25.6	26.6	64	18.2	2	10	292	0.0	1014.2	410	0.000	3.3
20100715 16:15	25.6	25.6	26.6	64	18.3	3	10	292	0.0	1014.2	410	0.000	3.4
20100715 16:20	25.4	25.4	26.4	62	17.6	8	14	22	0.0	1014.3	388	0.000	3.7
20100715 16:25	25.5	25.5	26.5	66	18.7	5	18	22	0.0	1014.2	654	0.000	3.9
20100715 16:30	25.7	25.7	26.7	64	18.3	3	8	315	0.0	1014.2	290	0.000	2.8
20100715 16:35	25.7	25.7	26.8	65	18.6	2	8	22	0.0	1014.2	259	0.000	2.4
20100715 16:40	25.7	25.7	26.7	63	18.1	3	10	22	0.0	1014.1	227	0.000	2.2
20100715 16:45	25.3	25.3	26.3	64	18.0	5	11	45	0.0	1014.2	219	0.000	2.1
20100715 16:50	25.2	25.2	26.2	65	18.2	2	6	0	0.0	1014.1	235	0.000	2.0
20100715 16:55	25.3	25.3	26.3	65	18.2	2	8	315	0.0	1014.1	200	0.000	1.5
20100715 17:00	25.2	25.2	26.2	65	18.1	5	10	45	0.0	1014.1	185	0.229	1.4
20100715 17:05	25.1	25.1	26.1	65	18.1	2	6	22	0.0	1014.0	158	0.000	1.3
20100715 17:10	25.1	25.1	26.1	65	18.1	2	8	315	0.0	1014.0	148	0.000	1.2
20100715 17:15	25.1	25.1	26.1	65	18.0	2	6	0	0.0	1014.0	160	0.000	1.3
20100715 17:20	25.0	25.0	26.0	65	18.0	0	5	0	0.0	1014.1	166	0.000	1.3
20100715 17:25	25.1	25.1	26.1	66	18.2	2	6	338	0.0	1013.9	165	0.000	1.3
20100715 17:30	25.1	25.1	26.1	64	17.8	2	5	0	0.0	1013.9	149	0.000	1.1
20100715 17:35	25.1	25.1	26.1	64	17.8	2	5	0	0.0	1014.0	138	0.000	1.0
20100715 17:40	25.1	25.1	26.1	64	17.8	0	2	338	0.0	1013.9	141	0.000	0.9
20100715 17:45	25.1	25.1	26.1	64	17.8	2	5	0	0.0	1014.0	138	0.000	0.9
20100715 17:50	25.0	25.0	26.0	65	18.0	2	5	0	0.0	1013.9	142	0.000	0.9
20100715 17:55	25.0	25.0	26.0	64	17.7	0	3	0	0.0	1014.0	148	0.000	0.9
20100715 18:00	25.1	25.1	26.1	65	18.0	0	3	0	0.0	1013.9	154	0.102	1.0
20100715 18:05	25.0	25.0	26.0	65	18.0	0	3	0	0.0	1014.0	153	0.000	0.9
20100715 18:10	25.0	25.0	26.0	65	18.0	0	5	0	0.0	1013.9	164	0.000	0.9
20100715 18:15	25.2	25.2	26.2	66	18.4	0	6	338	0.0	1014.0	197	0.000	1.0
20100715 18:20	25.3	25.3	26.3	64	18.0	0	3	338	0.0	1014.0	188	0.000	1.0
20100715 18:25	25.3	25.3	26.3	64	18.0	2	6	0	0.0	1013.9	164	0.000	0.9
20100715 18:30	25.2	25.2	26.2	63	17.7	3	6	0	0.0	1014.0	142	0.000	0.8
20100715 18:35	25.1	25.1	26.1	65	18.1	0	2	22	0.0	1014.0	137	0.000	0.7
20100715 18:40	25.1	25.1	26.1	65	18.1	0	3	0	0.0	1014.0	112	0.000	0.5
20100715 18:45	24.9	24.9	25.9	66	18.1	2	6	22	0.0	1014.0	81	0.000	0.0
20100715 18:50	24.9	24.9	25.9	65	17.9	2	5	22	0.0	1013.9	91	0.000	0.3
20100715 18:55	24.8	24.8	25.8	66	18.0	0	3	22	0.0	1013.8	88	0.000	0.3
20100715 19:00	24.8	24.8	25.8	66	18.0	0	3	22	0.0	1013.9	69	0.102	0.0
20100715 19:05	24.8	24.8	25.8	67	18.3	2	5	0	0.0	1013.8	76	0.000	0.0
20100715 19:10	24.8	24.8	25.8	67	18.3	2	5	0	0.0	1013.8	71	0.000	0.0
20100715 19:15	24.8	24.8	25.8	67	18.2	2	5	0	0.0	1013.9	70	0.000	0.0
20100715 19:20	24.8	24.8	25.8	67	18.2	2	6	338	0.0	1013.9	80	0.000	0.0
20100715 19:25	24.7	24.7	25.7	67	18.2	0	3	338	0.0	1013.9	109	0.000	0.0
20100715 19:30	24.8	24.8	25.8	66	18.0	0	0	-100000	0.0	1014.0	123	0.000	0.0
20100715 19:35	24.8	24.8	25.8	66	18.0	0	2	338	0.0	1014.1	102	0.000	0.0
20100715 19:40	24.9	24.9	25.9	66	18.1	0	5	338	0.0	1014.0	83	0.000	0.0
20100715 19:45	24.8	24.8	25.8	65	17.8	0	3	338	0.0	1014.1	78	0.000	0.0
20100715 19:50	24.8	24.8	25.8	66	18.0	0	3	338	0.0	1014.1	80	0.000	0.0
20100715 19:55	24.8	24.8	25.8	66	18.0	0	3	338	0.0	1014.1	71	0.000	0.0
20100715 20:00	24.7	24.7	25.7	66	17.9	0	3	338	0.0	1014.0	61	0.051	0.0
20100715 20:05	24.5	24.5	25.5	67	18.0	0	3	338	0.0	1014.0	53	0.000	0.0
20100715 20:10	24.4	24.4	25.4	67	17.9	0	0	-100000	0.0	1014.0	47	0.000	0.0
20100715 20:15	24.4	24.4	25.4	68	18.1	0	0	-100000	0.0	1014.0	42	0.000	0.0
20100715 20:20	24.3	24.3	25.3	69	18.3	0	3	338	0.0	1014.1	39	0.000	0.0
20100715 20:25	24.2	24.2	25.2	69	18.2	0	3	338	0.0	1014.1	35	0.000	0.0
20100715 20:30	24.1	24.1	25.1	69	18.1	2	5	338	0.0	1014.1	31	0.000	0.0
20100715 20:35	23.9	23.9	24.9	70	18.1	0	2	338	0.0	1014.1	27	0.000	0.0
20100715 20:40	23.9	23.9	24.8	71	18.3	0	2	248	0.0	1014.2	23	0.000	0.0
20100715 20:45	23.8	23.8	23.8	72	18.4	0	2	45	0.0	1014.1	20	0.000	0.0
20100715 20:50	23.7	23.7	23.7	72	18.3	0	2	45	0.0	1014.1	17	0.000	0.0
20100715 20:55	23.4	23.4	23.4	72	18.1	0	3	45	0.0	1014.3	14	0.000	0.0
20100715 21:00	23.3	23.3	23.3	73	18.2	0	2	45	0.0	1014.2	12	0.025	0.0
20100715 21:05	23.2	23.2	23.2	74	18.3	0	0	-100000	0.0	1014.1	9	0.000	0.0
20100715 21:10	22.9	22.9	22.9	75	18.3	0	0	-100000	0.0	1014.3	6	0.000	0.0
20100715 21:15	22.8	22.8	22.8	75	18.2	0	0	-100000	0.0	1014.2	2	0.000	0.0
20100715 21:20	22.7	22.7	22.7	77	18.4	0	0	-100000	0.0	1014.3	0	0.000	0.0
20100715 21:25	22.4	22.4	22.4	77	18.2	0	2	45	0.0	1014.4	0	0.000	0.0
20100715 21:30	22.2	22.2	22.2	78	18.2	0	0	-100000	0.0	1014.3	0	0.000	0.0
20100715 21:35	22.0	22.0	22.0	78	18.0	0	2	45	0.0	1014.3	0	0.000	0.0
20100715 21:40	21.8	21.8	21.8	78	17.8	0	2	45	0.0	1014.7	0	0.000	0.0
20100715 21:45	21.7	21.7	21.7	78	17.7	0	2	45	0.0	1014.9	0	0.000	0.0
20100715 21:50	21.6	21.6	21.6	78	17.5	0	2	45	0.0	1014.9	0	0.000	0.0
20100715 21:55	21.5	21.5	21.5	79	17.7	0	0	-100000	0.0	1015.0	0	0.000	0.0
20100715 22:00	21.4	21.4	21.4	79	17.6	0	0	-100000	0.0	1015.0	0	0.000	0.0
20100715 22:05	21.3	21.3	21.3	79	17.5	0	0	-100000	0.0	1015.2	0	0.000	0.0
20100715 22:10	21.3	21.3	21.3	80	17.7	0	0	-100000	0.0	1015.2	0	0.000	0.0
20100715 22:15	21.2	21.2	21.2	80	17.6	0	0	-100000	0.0	1015.3	0	0.000	0.0
20100715 22:20	21.2	21.2	21.2	80	17.6	0	2	45	0.0	1015.2	0	0.000	0.0
20100715 22:25	21.2	21.2	21.2	81	17.8	0	5	45	0.0	1015.2	0	0.000	0.0
20100715 22:30	21.2	21.2	21.2	81	17.8	2	5	45	0.0	1015.4	0	0.000	0.0
20100715 22:35	21.2	21.2	21.2	80	17.6	3	6	45	0.0	1015.3	0	0.000	0.0
20100715 22:40	21.3	21.3	21.3	80	17.7	3	8	45	0.0	1015.5	0	0.000	0.0
20100715 22:45	21.3	21.3	21.3	81	17.9	3	6	180	0.0	1015.5	0	0.000	0.0
20100715 22:50	21.4	21.4	21.4	81	18.0	2	5	202	0.0	1015.5	0	0.000	0.0
20100715 22:55	21.4	21.4	21.4	81	18.0	0	2	202	0.0	1015.5	0	0.000	0.0
20100715 23:00	21.5	21.5	21.5	80	17.9	0	2	202	0.0	1015.5	0	0.025	0.0
20100715 23:05	21.6	21.6	21.6	80	18.0	2	5	202	0.0	1015.4	0	0.000	0.0
20100715 23:10	21.6	21.6	21.6	80	18.0	0	5	202	0.0	1015.3	0	0.000	0.0
20100715 23:15	21.6	21.6	21.6	80	18.0	0	0	-100000	0.0	1015.2	0	0.000	0.0
20100715 23:20	21.6	21.6	21.6	80	18.0	0	0	-100000	0.0	1015.3	0	0.000	0.0
20100715 23:25	21.4	21.4	21.4	80	17.8	0	0	-100000	0.0	1015.3	0	0.000	0.0
20100715 23:30	21.3	21.3	21.3	81	17.9	0	0	-100000	0.0	1015.4	0	0.000	0.0
20100715 23:35	21.2	21.2	21.2	81	17.8	0	0	-100000	0.0	1015.4	0	0.000	0.0
20100715 23:40	21.1	21.1	21.1	82	17.9	0	2	202	0.0	1015.4	0	0.000	0.0
20100715 23:45	21.0	21.0	21.0	82	17.8	0	0	-100000	0.0	1015.4	0	0.000	0.0
20100715 23:50	20.9	20.9	20.9	83	17.9	0	0	-100000	0.0	1015.4	0	0.000	0.0
20100715 23:55	20.7	20.7	20.7	83	17.7	0	0	-100000	0.0	1015.4	0	0.000	0.0



Please note the license to use and transfer of this data:
http://creativecommons.org/licenses/by-nc-sa/3.0/deed.en

Bitte beachten sie die Lizenz zur Verwertung und Weitergabe der Daten:
http://creativecommons.org/licenses/by-nc-sa/3.0/deed.de

zurück zur Übersicht der Archivdaten (Monats und Tagesdaten)

Cookies helfen bei der Bereitstellung von Inhalten. Durch die Nutzung dieser Seiten erklärst du dich damit einverstanden, dass Cookies auf deinem Rechner gespeichert werden. Weitere Information